Time;durP1;ratioP1;P1;durP2;ratioP2;P2;SDS_P1;SDS_P2;PMS_P1;PMS_P2;Temp;Humidity;BMP_temperature;BMP_pressure;BME280_temperature;BME280_humidity;BME280_pressure;Samples;Min_cycle;Max_cycle;Signal;HPM_P1;HPM_P2
2023/09/18 00:00:11;;;;;;;20.65;15.68;;;18.80;99.90;;;;;;5062036;28;20035;-76
2023/09/18 00:02:38;;;;;;;18.90;15.80;;;18.80;99.90;;;;;;5063581;28;20017;-76
2023/09/18 00:05:04;;;;;;;19.10;15.93;;;18.70;99.90;;;;;;5062568;28;20033;-75
2023/09/18 00:07:29;;;;;;;21.33;16.77;;;18.70;99.90;;;;;;5063701;28;20032;-78
2023/09/18 00:09:55;;;;;;;18.13;15.32;;;18.60;99.90;;;;;;5062546;28;20509;-77
2023/09/18 00:12:20;;;;;;;21.85;15.27;;;18.70;99.90;;;;;;5063547;28;20017;-76
2023/09/18 00:14:50;;;;;;;20.80;16.33;;;18.70;99.90;;;;;;5063405;28;20024;-77
2023/09/18 00:17:16;;;;;;;20.95;15.80;;;18.70;99.90;;;;;;5062391;28;20028;-76
2023/09/18 00:19:42;;;;;;;24.23;15.50;;;18.60;99.90;;;;;;5063520;28;20055;-77
2023/09/18 00:22:08;;;;;;;20.08;15.75;;;18.60;99.90;;;;;;5062405;28;20024;-76
2023/09/18 00:24:34;;;;;;;22.30;16.00;;;18.60;99.90;;;;;;5063529;28;20112;-76
2023/09/18 00:26:59;;;;;;;19.33;16.25;;;18.60;99.90;;;;;;5060915;28;20108;-77
2023/09/18 00:29:25;;;;;;;21.33;15.30;;;18.60;99.90;;;;;;5063015;28;20824;-75
2023/09/18 00:31:50;;;;;;;18.05;15.10;;;18.60;99.90;;;;;;5061618;28;20413;-75
2023/09/18 00:34:16;;;;;;;21.33;15.95;;;18.60;99.90;;;;;;5060952;28;20040;-76
2023/09/18 00:36:41;;;;;;;21.08;15.32;;;18.50;99.90;;;;;;5063235;28;20059;-76
2023/09/18 00:39:08;;;;;;;23.15;15.73;;;18.50;99.90;;;;;;5061938;28;20021;-77
2023/09/18 00:41:33;;;;;;;19.00;14.75;;;18.50;99.90;;;;;;5063131;28;20084;-76
2023/09/18 00:43:59;;;;;;;18.77;15.00;;;18.50;99.90;;;;;;5062478;28;20033;-77
2023/09/18 00:46:26;;;;;;;20.92;16.25;;;18.50;99.90;;;;;;5061416;28;20454;-76
2023/09/18 00:48:53;;;;;;;20.52;15.88;;;18.50;99.90;;;;;;5062410;28;20519;-76
2023/09/18 00:51:19;;;;;;;19.88;15.40;;;18.40;99.90;;;;;;5062380;28;20021;-76
2023/09/18 00:53:48;;;;;;;21.58;15.23;;;18.40;99.90;;;;;;5062292;28;20027;-76
2023/09/18 00:56:13;;;;;;;20.52;15.57;;;18.30;99.90;;;;;;5062111;28;20024;-76
2023/09/18 00:58:39;;;;;;;18.88;14.95;;;18.30;99.90;;;;;;5062756;28;20029;-77
2023/09/18 01:01:09;;;;;;;21.67;14.65;;;18.30;99.90;;;;;;5062879;28;20017;-77
2023/09/18 01:03:35;;;;;;;21.08;15.90;;;18.30;99.90;;;;;;5062001;28;20021;-78
2023/09/18 01:06:01;;;;;;;18.17;14.57;;;18.20;99.90;;;;;;5061397;28;20067;-76
2023/09/18 01:08:26;;;;;;;19.67;14.50;;;18.20;99.90;;;;;;5060971;28;20029;-77
2023/09/18 01:11:05;;;;;;;19.55;14.20;;;18.10;99.90;;;;;;5061907;28;20345;-76
2023/09/18 01:13:41;;;;;;;18.85;15.45;;;18.10;99.90;;;;;;5060587;28;20025;-77
2023/09/18 01:16:14;;;;;;;20.42;15.63;;;18.10;99.90;;;;;;5061240;28;20482;-76
2023/09/18 01:18:51;;;;;;;19.77;15.75;;;18.10;99.90;;;;;;5060095;28;20089;-77
2023/09/18 01:21:21;;;;;;;19.77;15.10;;;18.10;99.90;;;;;;5059758;28;20021;-77
2023/09/18 01:23:47;;;;;;;21.75;16.23;;;18.10;99.90;;;;;;5060723;28;20056;-77
2023/09/18 01:26:12;;;;;;;19.83;15.07;;;18.00;99.90;;;;;;5062329;28;20108;-76
2023/09/18 01:28:38;;;;;;;21.92;15.52;;;18.00;99.90;;;;;;5060600;28;20057;-76
2023/09/18 01:31:03;;;;;;;18.80;14.85;;;18.00;99.90;;;;;;5060343;28;20025;-75
2023/09/18 01:33:30;;;;;;;20.73;15.50;;;18.00;99.90;;;;;;5060730;28;20051;-75
2023/09/18 01:35:56;;;;;;;19.27;15.52;;;18.00;99.90;;;;;;5060221;28;20044;-76
2023/09/18 01:38:24;;;;;;;24.08;15.57;;;18.00;99.90;;;;;;5060276;28;20473;-76
2023/09/18 01:40:51;;;;;;;20.77;15.52;;;18.00;99.90;;;;;;5060476;28;20080;-76
2023/09/18 01:43:18;;;;;;;19.27;15.50;;;18.00;99.90;;;;;;5060558;28;20071;-76
2023/09/18 01:45:43;;;;;;;17.35;14.65;;;18.00;99.90;;;;;;5060197;28;20025;-76
2023/09/18 01:48:09;;;;;;;22.80;15.27;;;17.90;99.90;;;;;;5059944;28;20032;-77
2023/09/18 01:50:37;;;;;;;19.63;14.80;;;17.90;99.90;;;;;;5060480;28;20029;-76
2023/09/18 01:53:03;;;;;;;19.05;15.23;;;17.90;99.90;;;;;;5060451;28;20024;-76
2023/09/18 01:55:29;;;;;;;21.27;14.85;;;17.90;99.90;;;;;;5059898;28;20051;-75
2023/09/18 01:57:56;;;;;;;18.67;14.95;;;17.90;99.90;;;;;;5061215;28;20025;-76
2023/09/18 02:00:21;;;;;;;18.65;14.73;;;17.90;99.90;;;;;;5061596;28;20410;-78
2023/09/18 02:02:47;;;;;;;19.08;15.55;;;17.90;99.90;;;;;;5061706;28;20069;-76
2023/09/18 02:05:13;;;;;;;22.33;15.23;;;17.90;99.90;;;;;;5059789;28;20032;-76
2023/09/18 02:07:38;;;;;;;21.20;15.27;;;17.90;99.90;;;;;;5060004;28;20029;-75
2023/09/18 02:10:04;;;;;;;22.63;15.57;;;17.90;99.90;;;;;;5061331;28;20075;-76
2023/09/18 02:12:30;;;;;;;18.85;15.82;;;17.90;99.90;;;;;;5060782;28;20084;-75
2023/09/18 02:14:58;;;;;;;20.85;14.25;;;17.80;99.90;;;;;;5060270;28;20051;-76
2023/09/18 02:17:24;;;;;;;23.05;15.25;;;17.80;99.90;;;;;;5059948;28;20048;-77
2023/09/18 02:19:49;;;;;;;18.25;14.27;;;17.80;99.90;;;;;;5059534;28;20021;-76
2023/09/18 02:22:15;;;;;;;19.83;15.00;;;17.80;99.90;;;;;;5059811;28;20021;-76
2023/09/18 02:24:41;;;;;;;18.50;15.00;;;17.80;99.90;;;;;;5059766;28;20375;-76
2023/09/18 02:27:07;;;;;;;18.85;15.13;;;17.70;99.90;;;;;;5059437;28;20057;-75
2023/09/18 02:29:32;;;;;;;20.33;14.88;;;17.70;99.90;;;;;;5060647;28;20029;-75
2023/09/18 02:31:58;;;;;;;18.85;14.75;;;17.70;99.90;;;;;;5059876;28;20032;-76
2023/09/18 02:34:23;;;;;;;19.92;14.35;;;17.70;99.90;;;;;;5059285;28;20021;-77
2023/09/18 02:36:49;;;;;;;18.80;14.65;;;17.70;99.90;;;;;;5061079;28;20021;-75
2023/09/18 02:39:14;;;;;;;19.40;15.05;;;17.70;99.90;;;;;;5059445;28;20075;-76
2023/09/18 02:41:40;;;;;;;22.38;15.00;;;17.70;99.90;;;;;;5060984;28;20043;-76
2023/09/18 02:44:06;;;;;;;20.83;14.48;;;17.60;99.90;;;;;;5061266;28;20029;-76
2023/09/18 02:46:31;;;;;;;19.27;14.63;;;17.60;99.90;;;;;;5058822;28;20025;-76
2023/09/18 02:48:57;;;;;;;17.23;14.48;;;17.60;99.90;;;;;;5060616;28;20037;-76
2023/09/18 02:51:23;;;;;;;21.05;14.35;;;17.60;99.90;;;;;;5059798;28;20021;-76
2023/09/18 02:53:58;;;;;;;18.70;14.00;;;17.60;99.90;;;;;;5061045;28;20032;-76
2023/09/18 02:56:23;;;;;;;20.70;14.50;;;17.60;99.90;;;;;;5058757;28;20021;-77
2023/09/18 02:58:49;;;;;;;17.65;12.98;;;17.60;99.90;;;;;;5059227;28;20064;-78
2023/09/18 03:01:14;;;;;;;19.10;13.90;;;17.60;99.90;;;;;;5061006;28;20083;-77
2023/09/18 03:03:41;;;;;;;20.52;14.23;;;17.60;99.90;;;;;;5059281;28;20036;-77
2023/09/18 03:06:07;;;;;;;16.77;14.10;;;17.50;99.90;;;;;;5061262;28;20070;-78
2023/09/18 03:08:33;;;;;;;18.10;13.75;;;17.60;99.90;;;;;;5059409;28;20044;-78
2023/09/18 03:10:59;;;;;;;18.05;14.38;;;17.50;99.90;;;;;;5058796;28;20028;-77
2023/09/18 03:13:29;;;;;;;17.70;13.73;;;17.50;99.90;;;;;;5059693;28;20032;-77
2023/09/18 03:15:56;;;;;;;19.08;14.43;;;17.50;99.90;;;;;;5059778;28;20032;-77
2023/09/18 03:18:21;;;;;;;20.75;14.45;;;17.50;99.90;;;;;;5062516;28;20088;-77
2023/09/18 03:20:48;;;;;;;18.77;14.05;;;17.50;99.90;;;;;;5064652;28;20036;-77
2023/09/18 03:23:14;;;;;;;17.23;14.13;;;17.50;99.90;;;;;;5064728;28;20029;-77
2023/09/18 03:25:39;;;;;;;17.05;13.65;;;17.50;99.90;;;;;;5064523;28;20025;-78
2023/09/18 03:28:05;;;;;;;20.65;14.10;;;17.50;99.90;;;;;;5063204;28;20055;-79
2023/09/18 03:30:31;;;;;;;20.38;14.35;;;17.50;99.90;;;;;;5063927;28;20043;-76
2023/09/18 03:32:57;;;;;;;18.55;13.65;;;17.50;99.90;;;;;;5062577;28;20029;-76
2023/09/18 03:35:23;;;;;;;19.85;14.25;;;17.50;99.90;;;;;;5062903;28;20128;-77
2023/09/18 03:37:51;;;;;;;18.80;14.73;;;17.50;99.90;;;;;;5062709;28;20021;-76
2023/09/18 03:40:18;;;;;;;19.52;13.57;;;17.50;99.90;;;;;;5063761;28;20151;-76
2023/09/18 03:42:44;;;;;;;18.38;13.95;;;17.50;99.90;;;;;;5062957;28;20496;-77
2023/09/18 03:45:10;;;;;;;18.38;13.98;;;17.50;99.90;;;;;;5062138;28;20040;-77
2023/09/18 03:47:37;;;;;;;17.90;13.98;;;17.40;99.90;;;;;;5062671;28;20025;-78
2023/09/18 03:50:03;;;;;;;16.05;12.95;;;17.40;99.90;;;;;;5062579;28;20535;-76
2023/09/18 03:52:29;;;;;;;19.40;13.90;;;17.40;99.90;;;;;;5062469;28;20021;-77
2023/09/18 03:54:55;;;;;;;22.75;14.20;;;17.40;99.90;;;;;;5062764;28;20055;-76
2023/09/18 03:57:20;;;;;;;18.17;12.75;;;17.40;99.90;;;;;;5064129;28;20021;-76
2023/09/18 03:59:46;;;;;;;17.98;13.40;;;17.40;99.90;;;;;;5063303;28;20776;-76
2023/09/18 04:02:12;;;;;;;16.33;14.05;;;17.40;99.90;;;;;;5062714;28;20082;-77
2023/09/18 04:04:37;;;;;;;20.02;13.85;;;17.40;99.90;;;;;;5062397;28;20029;-77
2023/09/18 04:07:07;;;;;;;19.42;13.95;;;17.40;99.90;;;;;;5062280;28;20029;-77
2023/09/18 04:09:34;;;;;;;16.50;13.10;;;17.40;99.90;;;;;;5063595;28;20033;-76
2023/09/18 04:12:05;;;;;;;16.23;13.15;;;17.40;99.90;;;;;;5063759;28;20052;-76
2023/09/18 04:14:31;;;;;;;20.30;12.98;;;17.40;99.90;;;;;;5063204;28;20035;-76
2023/09/18 04:16:56;;;;;;;17.65;12.68;;;17.40;99.90;;;;;;5062236;28;20057;-76
2023/09/18 04:19:22;;;;;;;21.17;14.18;;;17.30;99.90;;;;;;5063337;28;20029;-77
2023/09/18 04:21:48;;;;;;;18.77;13.48;;;17.30;99.90;;;;;;5061522;28;20017;-76
2023/09/18 04:24:13;;;;;;;17.45;13.10;;;17.30;99.90;;;;;;5062360;28;20071;-78
2023/09/18 04:26:39;;;;;;;19.08;13.27;;;17.30;99.90;;;;;;5061593;28;20025;-77
2023/09/18 04:29:07;;;;;;;17.13;12.65;;;17.30;99.90;;;;;;5060913;28;20047;-75
2023/09/18 04:31:33;;;;;;;15.25;12.10;;;17.30;99.90;;;;;;5061861;28;20047;-77
2023/09/18 04:33:58;;;;;;;18.23;13.48;;;17.30;99.90;;;;;;5063024;28;20116;-77
2023/09/18 04:36:24;;;;;;;18.38;12.52;;;17.30;99.90;;;;;;5063141;28;20045;-77
2023/09/18 04:38:50;;;;;;;16.52;12.77;;;17.30;99.90;;;;;;5062753;28;20021;-78
2023/09/18 04:41:16;;;;;;;14.15;12.10;;;17.30;99.90;;;;;;5061405;28;20673;-76
2023/09/18 04:43:44;;;;;;;19.83;12.27;;;17.30;99.90;;;;;;5061750;28;20028;-79
2023/09/18 04:46:10;;;;;;;16.17;13.05;;;17.30;99.90;;;;;;5061639;28;20025;-77
2023/09/18 04:48:36;;;;;;;18.75;12.65;;;17.30;99.90;;;;;;5062913;28;20085;-77
2023/09/18 04:51:06;;;;;;;16.83;13.15;;;17.30;99.90;;;;;;5061112;28;20020;-76
2023/09/18 04:53:32;;;;;;;18.95;13.00;;;17.30;99.90;;;;;;5062653;28;20569;-77
2023/09/18 04:55:58;;;;;;;17.45;13.25;;;17.30;99.90;;;;;;5062841;28;20025;-77
2023/09/18 04:58:24;;;;;;;17.58;12.05;;;17.30;99.90;;;;;;5061269;28;20127;-77
2023/09/18 05:00:56;;;;;;;19.45;13.20;;;17.30;99.90;;;;;;5062374;28;21147;-77
2023/09/18 05:03:22;;;;;;;20.20;13.07;;;17.40;99.90;;;;;;5062546;28;20080;-74
2023/09/18 05:05:48;;;;;;;21.52;13.48;;;17.40;99.90;;;;;;5061441;28;20052;-76
2023/09/18 05:08:14;;;;;;;20.83;12.52;;;17.40;99.90;;;;;;5060595;28;20025;-77
2023/09/18 05:10:40;;;;;;;15.30;11.77;;;17.40;99.90;;;;;;5061050;28;20032;-76
2023/09/18 05:13:06;;;;;;;18.65;12.43;;;17.40;99.90;;;;;;5062805;28;20066;-76
2023/09/18 05:15:32;;;;;;;16.73;13.02;;;17.40;99.90;;;;;;5061598;28;20032;-75
2023/09/18 05:18:01;;;;;;;17.13;12.35;;;17.40;99.90;;;;;;5060777;28;20029;-75
2023/09/18 05:20:29;;;;;;;18.55;12.48;;;17.40;99.90;;;;;;5059672;28;20021;-76
2023/09/18 05:22:56;;;;;;;16.35;12.68;;;17.30;99.90;;;;;;5059190;28;20028;-76
2023/09/18 05:25:23;;;;;;;21.13;12.57;;;17.40;99.90;;;;;;5060526;28;20470;-74
2023/09/18 05:27:55;;;;;;;21.65;12.68;;;17.30;99.90;;;;;;5059034;28;20090;-75
2023/09/18 05:30:23;;;;;;;20.25;13.05;;;17.40;99.90;;;;;;5061923;28;21425;-76
2023/09/18 05:32:49;;;;;;;18.67;12.95;;;17.40;99.90;;;;;;5062044;28;20073;-77
2023/09/18 05:35:16;;;;;;;16.30;12.15;;;17.40;99.90;;;;;;5061267;28;20095;-76
2023/09/18 05:37:43;;;;;;;16.67;12.80;;;17.40;99.90;;;;;;5059483;28;20024;-78
2023/09/18 05:40:10;;;;;;;17.58;12.68;;;17.50;99.90;;;;;;5060616;28;20048;-78
2023/09/18 05:42:38;;;;;;;16.42;12.13;;;17.50;99.90;;;;;;5059834;28;20085;-77
2023/09/18 05:45:04;;;;;;;19.65;13.10;;;17.50;99.90;;;;;;5060013;28;20508;-77
2023/09/18 05:47:33;;;;;;;17.23;11.73;;;17.50;99.90;;;;;;5056713;28;20210;-75
2023/09/18 05:49:59;;;;;;;14.57;11.32;;;17.60;99.90;;;;;;5057719;28;20037;-75
2023/09/18 05:52:25;;;;;;;13.80;11.00;;;17.60;99.90;;;;;;5058432;28;20100;-74
2023/09/18 05:54:51;;;;;;;17.10;12.07;;;17.60;99.90;;;;;;5055848;28;20024;-76
2023/09/18 05:57:17;;;;;;;20.05;12.43;;;17.60;99.90;;;;;;5057456;28;20024;-76
2023/09/18 05:59:46;;;;;;;19.00;12.10;;;17.60;99.90;;;;;;5058747;28;20032;-76
2023/09/18 06:02:12;;;;;;;16.23;11.77;;;17.60;99.90;;;;;;5053754;28;20025;-77
2023/09/18 06:04:38;;;;;;;21.83;12.23;;;17.70;99.90;;;;;;5059705;28;20697;-77
2023/09/18 06:07:04;;;;;;;19.25;11.13;;;17.70;99.90;;;;;;5058559;28;20035;-76
2023/09/18 06:09:29;;;;;;;14.25;10.85;;;17.80;99.90;;;;;;5056851;28;20110;-76
2023/09/18 06:11:55;;;;;;;15.73;11.32;;;17.80;99.90;;;;;;5055074;28;20095;-76
2023/09/18 06:14:21;;;;;;;19.25;11.35;;;17.90;99.90;;;;;;5055364;28;20076;-76
2023/09/18 06:16:46;;;;;;;15.10;10.45;;;17.90;99.90;;;;;;5058603;28;20044;-76
2023/09/18 06:19:12;;;;;;;15.50;11.07;;;17.90;99.90;;;;;;5058343;28;20025;-75
2023/09/18 06:21:38;;;;;;;19.48;10.88;;;18.00;99.90;;;;;;5058502;28;20059;-76
2023/09/18 06:24:03;;;;;;;15.18;10.75;;;18.00;99.90;;;;;;5056752;28;20494;-77
2023/09/18 06:26:29;;;;;;;14.82;10.55;;;18.10;99.90;;;;;;5059513;28;20027;-76
2023/09/18 06:28:55;;;;;;;14.32;10.52;;;18.10;99.90;;;;;;5059391;28;20037;-75
2023/09/18 06:31:21;;;;;;;16.77;10.63;;;18.10;99.90;;;;;;5059657;28;20071;-76
2023/09/18 06:33:46;;;;;;;18.88;10.68;;;18.20;99.90;;;;;;5058008;28;20027;-77
2023/09/18 06:36:13;;;;;;;16.63;10.20;;;18.20;99.90;;;;;;5059659;28;20041;-79
2023/09/18 06:38:38;;;;;;;15.90;10.90;;;18.20;99.90;;;;;;5058599;28;20032;-77
2023/09/18 06:41:04;;;;;;;16.30;10.20;;;18.30;99.90;;;;;;5059822;28;20029;-77
2023/09/18 06:43:29;;;;;;;17.50;10.50;;;18.40;99.90;;;;;;5057594;28;20040;-76
2023/09/18 06:45:57;;;;;;;13.32;10.23;;;18.40;99.90;;;;;;5061148;28;20149;-76
2023/09/18 06:48:23;;;;;;;15.05;10.40;;;18.50;99.90;;;;;;5057983;28;20036;-76
2023/09/18 06:50:49;;;;;;;17.77;10.38;;;18.60;99.90;;;;;;5061109;28;20029;-76
2023/09/18 06:53:15;;;;;;;14.30;10.65;;;18.60;99.90;;;;;;5062096;28;20040;-76
2023/09/18 06:55:40;;;;;;;16.30;10.15;;;18.70;99.90;;;;;;5055893;28;20097;-73
2023/09/18 06:58:06;;;;;;;15.25;10.48;;;18.70;99.90;;;;;;5059863;28;20041;-76
2023/09/18 07:00:31;;;;;;;15.40;10.27;;;18.80;99.90;;;;;;5057488;28;20093;-73
2023/09/18 07:02:57;;;;;;;18.80;10.00;;;18.80;99.90;;;;;;5061080;28;20029;-76
2023/09/18 07:05:23;;;;;;;16.65;10.18;;;18.90;99.90;;;;;;5063969;28;20037;-75
2023/09/18 07:07:48;;;;;;;16.52;9.95;;;18.90;99.90;;;;;;5063056;28;20069;-76
2023/09/18 07:10:14;;;;;;;13.30;9.70;;;18.90;99.90;;;;;;5062827;28;20036;-76
2023/09/18 07:12:40;;;;;;;15.88;10.95;;;19.00;99.90;;;;;;5063911;28;20386;-77
2023/09/18 07:15:06;;;;;;;14.35;10.20;;;19.00;99.90;;;;;;5065136;28;20068;-76
2023/09/18 07:17:33;;;;;;;13.63;9.80;;;19.00;99.90;;;;;;5062084;28;20025;-73
2023/09/18 07:20:00;;;;;;;20.85;10.38;;;19.00;99.90;;;;;;5063164;28;20041;-76
2023/09/18 07:22:25;;;;;;;12.70;10.25;;;19.00;99.90;;;;;;5064662;28;20052;-77
2023/09/18 07:24:51;;;;;;;15.30;9.52;;;19.00;99.90;;;;;;5059002;28;20024;-77
2023/09/18 07:27:16;;;;;;;14.73;10.50;;;19.00;99.90;;;;;;5061572;28;20025;-76
2023/09/18 07:29:42;;;;;;;14.02;10.07;;;19.10;99.90;;;;;;5063298;28;20033;-76
2023/09/18 07:32:09;;;;;;;17.73;11.13;;;19.10;99.90;;;;;;5060995;28;20037;-75
2023/09/18 07:34:35;;;;;;;14.02;10.45;;;19.10;99.90;;;;;;5062409;28;20465;-76
2023/09/18 07:37:00;;;;;;;17.38;10.48;;;19.10;99.90;;;;;;5063851;28;20025;-76
2023/09/18 07:39:42;;;;;;;16.63;9.88;;;19.10;99.90;;;;;;5059769;28;20581;-76
2023/09/18 07:42:08;;;;;;;14.23;9.93;;;19.10;99.90;;;;;;5060953;28;20055;-76
2023/09/18 07:44:33;;;;;;;16.88;10.45;;;19.20;99.90;;;;;;5062809;28;20029;-74
2023/09/18 07:47:01;;;;;;;14.30;10.02;;;19.20;99.90;;;;;;5060958;28;20717;-76
2023/09/18 07:49:27;;;;;;;13.60;9.48;;;19.20;99.90;;;;;;5058453;28;20079;-74
2023/09/18 07:51:52;;;;;;;15.85;11.07;;;19.20;99.90;;;;;;5060625;28;20029;-77
2023/09/18 07:54:18;;;;;;;16.48;9.70;;;19.30;99.90;;;;;;5064029;28;20024;-76
2023/09/18 07:56:43;;;;;;;14.13;9.82;;;19.30;99.90;;;;;;5062782;28;20025;-75
2023/09/18 07:59:10;;;;;;;18.52;11.02;;;19.30;99.90;;;;;;5062694;28;20050;-77
2023/09/18 08:01:36;;;;;;;12.32;10.00;;;19.30;99.90;;;;;;5062371;28;20029;-75
2023/09/18 08:04:02;;;;;;;15.52;10.05;;;19.30;99.90;;;;;;5060840;28;20120;-75
2023/09/18 08:06:28;;;;;;;14.48;10.73;;;19.30;99.90;;;;;;5063502;28;20036;-75
2023/09/18 08:08:54;;;;;;;14.52;10.70;;;19.30;99.90;;;;;;5061406;28;20033;-75
2023/09/18 08:11:19;;;;;;;19.30;10.45;;;19.30;99.90;;;;;;5062711;28;20036;-76
2023/09/18 08:13:45;;;;;;;18.88;11.05;;;19.30;99.90;;;;;;5061027;28;20108;-75
2023/09/18 08:16:11;;;;;;;15.75;10.15;;;19.30;99.90;;;;;;5062551;28;20025;-74
2023/09/18 08:18:40;;;;;;;14.23;10.40;;;19.30;99.90;;;;;;5059470;28;20025;-75
2023/09/18 08:21:08;;;;;;;16.92;10.15;;;19.30;99.90;;;;;;5057134;28;20047;-77
2023/09/18 08:23:38;;;;;;;15.93;10.30;;;19.30;99.90;;;;;;5058153;28;20036;-75
2023/09/18 08:26:03;;;;;;;15.95;11.07;;;19.30;99.90;;;;;;5062871;28;20043;-77
2023/09/18 08:28:30;;;;;;;13.00;10.13;;;19.30;99.90;;;;;;5062469;28;20029;-75
2023/09/18 08:30:55;;;;;;;16.10;10.52;;;19.30;99.90;;;;;;5062077;28;20507;-75
2023/09/18 08:33:21;;;;;;;15.02;10.35;;;19.40;99.90;;;;;;5062178;28;20092;-75
2023/09/18 08:35:49;;;;;;;15.30;10.35;;;19.30;99.90;;;;;;5060186;28;20049;-73
2023/09/18 08:38:15;;;;;;;14.85;10.20;;;19.40;99.90;;;;;;5061902;28;20024;-78
2023/09/18 08:40:42;;;;;;;16.77;10.15;;;19.40;99.90;;;;;;5060358;28;20021;-78
2023/09/18 08:43:08;;;;;;;17.05;11.00;;;19.50;99.90;;;;;;5062297;28;20043;-74
2023/09/18 08:45:47;;;;;;;16.50;10.48;;;19.50;99.90;;;;;;5062353;28;20080;-75
2023/09/18 08:48:13;;;;;;;19.70;10.27;;;19.50;99.90;;;;;;5060654;28;20032;-75
2023/09/18 08:50:40;;;;;;;17.42;10.32;;;19.60;99.90;;;;;;5058279;28;20047;-75
2023/09/18 08:53:06;;;;;;;15.50;11.35;;;19.70;99.90;;;;;;5060052;28;20056;-75
2023/09/18 08:55:33;;;;;;;18.48;10.93;;;19.80;99.90;;;;;;5059238;28;20040;-76
2023/09/18 08:58:00;;;;;;;13.38;10.40;;;20.00;99.90;;;;;;5062453;28;20025;-76
2023/09/18 09:00:26;;;;;;;15.77;10.40;;;20.10;99.90;;;;;;5062404;28;20055;-75
2023/09/18 09:02:54;;;;;;;17.35;9.63;;;20.20;99.90;;;;;;5058731;28;20040;-76
2023/09/18 09:05:22;;;;;;;13.38;9.60;;;20.30;99.90;;;;;;5059247;28;20032;-76
2023/09/18 09:07:50;;;;;;;16.17;8.95;;;20.40;99.90;;;;;;5059650;28;20029;-75
2023/09/18 09:10:15;;;;;;;15.52;9.02;;;20.60;99.90;;;;;;5058267;28;20049;-76
2023/09/18 09:12:57;;;;;;;14.43;8.80;;;20.60;99.90;;;;;;5060364;28;20079;-76
2023/09/18 09:15:25;;;;;;;12.68;8.30;;;20.70;99.90;;;;;;5056173;28;20029;-74
2023/09/18 09:17:53;;;;;;;14.35;8.38;;;20.70;99.90;;;;;;5053708;28;20032;-74
2023/09/18 09:20:19;;;;;;;12.68;7.85;;;20.80;99.90;;;;;;5060464;28;20029;-74
2023/09/18 09:22:50;;;;;;;14.25;8.07;;;20.90;99.90;;;;;;5061049;28;20047;-75
2023/09/18 09:25:26;;;;;;;14.85;8.07;;;20.90;99.90;;;;;;5055899;28;20044;-75
2023/09/18 09:27:53;;;;;;;14.60;8.40;;;21.00;99.90;;;;;;5059406;28;20037;-75
2023/09/18 09:30:21;;;;;;;12.15;7.55;;;21.10;99.90;;;;;;5059920;28;20041;-75
2023/09/18 09:32:49;;;;;;;12.73;7.45;;;21.10;99.90;;;;;;5059664;28;20047;-74
2023/09/18 09:35:35;;;;;;;17.83;7.63;;;21.20;99.90;;;;;;5058000;28;20059;-76
2023/09/18 09:38:15;;;;;;;11.55;6.53;;;21.20;99.90;;;;;;5060628;28;20131;-74
2023/09/18 09:40:43;;;;;;;17.70;6.88;;;21.30;99.90;;;;;;5062012;28;20021;-78
2023/09/18 09:43:13;;;;;;;12.18;6.13;;;21.30;99.90;;;;;;5060872;28;20032;-73
2023/09/18 09:45:40;;;;;;;11.13;5.40;;;21.30;99.90;;;;;;5058819;28;20021;-71
2023/09/18 09:48:08;;;;;;;15.73;6.15;;;21.30;99.90;;;;;;5061865;28;20214;-74
2023/09/18 09:50:47;;;;;;;29.80;6.00;;;21.40;99.90;;;;;;5058466;28;20171;-73
2023/09/18 09:53:14;;;;;;;14.88;5.63;;;21.40;99.90;;;;;;5060347;28;20025;-76
2023/09/18 09:55:40;;;;;;;12.98;6.00;;;21.50;99.90;;;;;;5060552;28;20085;-72
2023/09/18 09:58:10;;;;;;;14.73;5.90;;;21.50;99.90;;;;;;5060825;28;20425;-75
2023/09/18 10:00:43;;;;;;;14.43;6.20;;;21.60;99.90;;;;;;5060129;28;20042;-73
2023/09/18 10:03:11;;;;;;;14.60;6.35;;;21.60;99.90;;;;;;5075760;28;20029;-74
2023/09/18 10:05:39;;;;;;;11.48;5.57;;;21.70;99.90;;;;;;5061849;28;20052;-72
2023/09/18 10:08:10;;;;;;;11.70;5.57;;;21.70;99.90;;;;;;5060238;28;20025;-74
2023/09/18 10:10:39;;;;;;;17.80;6.00;;;21.70;99.90;;;;;;5061328;28;20072;-77
2023/09/18 10:13:22;;;;;;;11.10;6.00;;;21.70;99.90;;;;;;5060158;28;20032;-72
2023/09/18 10:15:50;;;;;;;16.83;6.63;;;21.70;99.90;;;;;;5059183;28;20029;-70
2023/09/18 10:18:38;;;;;;;14.93;6.30;;;21.70;99.90;;;;;;5061153;28;20029;-71
2023/09/18 10:21:24;;;;;;;13.25;6.40;;;21.70;99.90;;;;;;5061484;28;20031;-72
2023/09/18 10:24:09;;;;;;;10.88;5.80;;;21.70;99.90;;;;;;5061394;28;20044;-72
2023/09/18 10:26:43;;;;;;;12.45;6.10;;;21.80;99.90;;;;;;5061658;28;20025;-72
2023/09/18 10:29:11;;;;;;;15.45;5.53;;;21.80;99.90;;;;;;5060822;28;20104;-72
2023/09/18 10:31:40;;;;;;;14.32;6.50;;;21.80;99.90;;;;;;5058155;28;20033;-73
2023/09/18 10:34:08;;;;;;;17.20;6.40;;;21.80;99.90;;;;;;5060199;28;20029;-72
2023/09/18 10:36:35;;;;;;;17.00;6.40;;;21.90;99.90;;;;;;5059466;28;20052;-73
2023/09/18 10:39:02;;;;;;;16.63;6.00;;;21.90;99.90;;;;;;5058840;28;20407;-73
2023/09/18 10:41:28;;;;;;;19.40;6.43;;;21.90;99.90;;;;;;5058835;28;20047;-72
2023/09/18 10:43:57;;;;;;;18.02;6.10;;;21.90;99.90;;;;;;5060082;28;20021;-71
2023/09/18 10:46:25;;;;;;;14.65;6.03;;;21.90;99.90;;;;;;5054614;28;20051;-72
2023/09/18 10:48:51;;;;;;;17.15;6.00;;;21.90;99.90;;;;;;5058379;28;20041;-69
2023/09/18 10:51:21;;;;;;;12.80;5.50;;;21.90;99.90;;;;;;5060166;28;20055;-70
2023/09/18 10:53:48;;;;;;;16.52;5.68;;;21.90;99.90;;;;;;5059796;28;20021;-72
2023/09/18 10:56:17;;;;;;;14.52;5.43;;;21.80;99.90;;;;;;5058416;28;20048;-72
2023/09/18 10:58:43;;;;;;;19.00;5.53;;;21.80;99.90;;;;;;5059764;28;20474;-73
2023/09/18 11:01:12;;;;;;;13.77;5.95;;;21.80;99.90;;;;;;5059103;28;20025;-73
2023/09/18 11:03:38;;;;;;;15.32;5.47;;;21.80;99.90;;;;;;5060390;28;20042;-68
2023/09/18 11:06:12;;;;;;;15.68;5.45;;;21.70;99.90;;;;;;5061356;28;20017;-69
2023/09/18 11:08:42;;;;;;;20.45;5.07;;;21.70;99.90;;;;;;5060700;28;20032;-71
2023/09/18 11:11:14;;;;;;;11.82;5.40;;;21.60;99.90;;;;;;5061071;28;20058;-70
2023/09/18 11:13:53;;;;;;;21.77;5.50;;;21.60;99.90;;;;;;5061142;28;20022;-73
2023/09/18 11:16:28;;;;;;;14.75;5.45;;;21.60;99.90;;;;;;5059598;28;20359;-73
2023/09/18 11:19:05;;;;;;;11.98;5.38;;;21.70;99.90;;;;;;5060917;28;20025;-72
2023/09/18 11:21:32;;;;;;;14.73;5.40;;;21.80;99.90;;;;;;5060441;28;20063;-72
2023/09/18 11:24:00;;;;;;;15.60;5.75;;;21.80;99.90;;;;;;5059029;28;20440;-71
2023/09/18 11:26:31;;;;;;;13.18;5.47;;;21.90;99.90;;;;;;5059411;28;20036;-74
2023/09/18 11:29:05;;;;;;;19.95;5.72;;;22.00;99.90;;;;;;5060315;28;20037;-75
2023/09/18 11:31:56;;;;;;;13.95;4.70;;;22.00;99.90;;;;;;5059265;28;20443;-72
2023/09/18 11:34:26;;;;;;;11.43;5.05;;;22.30;99.90;;;;;;5059581;28;20020;-73
2023/09/18 11:36:52;;;;;;;12.23;4.82;;;22.30;99.90;;;;;;5059121;28;20080;-75
2023/09/18 11:39:38;;;;;;;15.48;5.05;;;22.30;99.90;;;;;;5063310;28;20017;-72
2023/09/18 11:42:13;;;;;;;14.57;5.20;;;22.30;99.90;;;;;;5062902;28;20107;-72
2023/09/18 11:44:46;;;;;;;12.05;4.78;;;22.30;99.90;;;;;;5062402;28;20912;-71
2023/09/18 11:47:18;;;;;;;13.82;5.38;;;22.30;99.90;;;;;;5063209;28;20040;-73
2023/09/18 11:49:57;;;;;;;9.60;4.82;;;22.20;99.90;;;;;;5064334;28;20089;-73
2023/09/18 11:52:25;;;;;;;12.93;5.25;;;22.30;99.90;;;;;;5063737;28;20028;-73
2023/09/18 11:54:51;;;;;;;10.48;4.95;;;22.20;99.90;;;;;;5063499;28;20071;-74
2023/09/18 11:57:19;;;;;;;13.30;5.22;;;22.10;99.90;;;;;;5063941;28;20059;-72
2023/09/18 11:59:46;;;;;;;12.57;4.95;;;22.10;99.90;;;;;;5062097;28;20029;-73
2023/09/18 12:02:27;;;;;;;11.07;5.28;;;22.10;99.90;;;;;;5064121;28;20523;-71
2023/09/18 12:04:54;;;;;;;13.43;5.05;;;22.10;99.90;;;;;;5062574;28;20088;-69
2023/09/18 12:07:20;;;;;;;13.35;5.05;;;22.00;99.90;;;;;;5063940;28;20029;-73
2023/09/18 12:09:46;;;;;;;12.52;4.78;;;22.10;99.90;;;;;;5062244;28;20044;-73
2023/09/18 12:12:14;;;;;;;8.48;4.68;;;22.00;99.90;;;;;;5062399;28;20017;-73
2023/09/18 12:14:42;;;;;;;9.05;4.40;;;22.10;99.90;;;;;;5064107;28;20075;-73
2023/09/18 12:17:08;;;;;;;18.33;5.28;;;22.00;99.90;;;;;;5062166;28;20393;-74
2023/09/18 12:19:35;;;;;;;12.65;4.88;;;22.00;99.90;;;;;;5063743;28;20021;-71
2023/09/18 12:22:02;;;;;;;10.35;4.70;;;22.10;99.90;;;;;;5063353;28;20028;-73
2023/09/18 12:24:27;;;;;;;9.65;5.30;;;22.10;99.90;;;;;;5063750;28;20025;-72
2023/09/18 12:26:54;;;;;;;10.73;3.92;;;22.20;99.90;;;;;;5062780;28;20029;-74
2023/09/18 12:29:21;;;;;;;8.13;3.55;;;22.30;99.90;;;;;;5063547;28;20120;-72
2023/09/18 12:31:47;;;;;;;6.65;3.70;;;22.30;99.90;;;;;;5060357;28;20029;-74